createdAt,value
2023-03-16T00:00:38.489Z,1.00
2023-03-16T00:03:06.523Z,0.73
2023-03-16T00:05:35.026Z,0.80
2023-03-16T00:08:03.461Z,0.87
2023-03-16T00:10:31.850Z,0.90
2023-03-16T00:12:59.603Z,0.90
2023-03-16T00:15:28.250Z,0.90
2023-03-16T00:17:56.210Z,0.90
2023-03-16T00:20:24.737Z,0.90
2023-03-16T00:22:53.198Z,1.00
2023-03-16T00:25:21.609Z,0.90
2023-03-16T00:27:49.896Z,1.03
2023-03-16T00:30:18.867Z,0.73
2023-03-16T00:32:46.865Z,1.13
2023-03-16T00:35:15.290Z,1.03
2023-03-16T00:37:45.093Z,0.97
2023-03-16T00:42:43.255Z,1.42
2023-03-16T00:45:12.466Z,1.27
2023-03-16T00:47:40.327Z,1.33
2023-03-16T00:50:09.074Z,1.40
2023-03-16T00:52:37.579Z,1.30
2023-03-16T00:55:05.748Z,1.50
2023-03-16T00:57:34.211Z,1.20
2023-03-16T01:00:04.185Z,1.20
2023-03-16T01:02:33.226Z,1.27
2023-03-16T01:05:02.831Z,1.20
2023-03-16T01:07:31.772Z,1.13
2023-03-16T01:10:00.079Z,1.10
2023-03-16T01:12:27.975Z,1.50
2023-03-16T01:14:56.149Z,1.10
2023-03-16T01:17:24.843Z,1.20
2023-03-16T01:19:53.352Z,1.20
2023-03-16T01:22:21.818Z,1.10
2023-03-16T01:24:50.114Z,0.97
2023-03-16T01:27:18.421Z,1.20
2023-03-16T01:29:46.733Z,0.83
2023-03-16T01:32:14.578Z,0.90
2023-03-16T01:34:43.075Z,1.07
2023-03-16T01:37:11.391Z,1.17
2023-03-16T01:39:39.770Z,1.20
2023-03-16T01:42:08.615Z,1.20
2023-03-16T01:44:55.839Z,1.10
2023-03-16T01:47:24.642Z,0.83
2023-03-16T01:49:55.441Z,1.23
2023-03-16T01:52:25.487Z,0.97
2023-03-16T01:54:58.160Z,0.87
2023-03-16T01:57:31.253Z,0.90
2023-03-16T02:00:02.908Z,0.90
2023-03-16T02:02:32.689Z,0.80
2023-03-16T02:05:11.684Z,0.70
2023-03-16T02:07:44.269Z,0.63
2023-03-16T02:10:13.437Z,0.80
2023-03-16T02:12:42.011Z,0.67
2023-03-16T02:15:10.453Z,0.80
2023-03-16T02:17:38.864Z,0.80
2023-03-16T02:20:17.662Z,1.00
2023-03-16T02:22:47.707Z,0.43
2023-03-16T02:25:17.586Z,1.43
2023-03-16T02:30:16.594Z,0.72
2023-03-16T02:32:46.439Z,0.77
2023-03-16T02:37:42.456Z,0.85
2023-03-16T02:40:24.718Z,0.70
2023-03-16T02:43:03.938Z,0.90
2023-03-16T02:45:39.271Z,0.90
2023-03-16T02:48:09.285Z,1.00
2023-03-16T02:50:37.689Z,0.93
2023-03-16T02:53:06.818Z,0.97
2023-03-16T02:55:34.621Z,0.77
2023-03-16T02:58:02.955Z,0.90
2023-03-16T03:00:30.782Z,0.80
2023-03-16T03:02:59.586Z,1.00
2023-03-16T03:05:28.136Z,1.10
2023-03-16T03:07:55.976Z,0.80
2023-03-16T03:10:24.595Z,0.90
2023-03-16T03:12:52.877Z,0.70
2023-03-16T03:15:21.799Z,1.27
2023-03-16T03:17:50.513Z,0.87
2023-03-16T03:20:19.999Z,1.10
2023-03-16T03:22:49.744Z,0.73
2023-03-16T03:25:18.438Z,0.80
2023-03-16T03:27:47.521Z,1.30
2023-03-16T03:30:17.697Z,0.63
2023-03-16T03:32:46.346Z,1.27
2023-03-16T03:35:16.585Z,0.90
2023-03-16T03:37:45.477Z,0.90
2023-03-16T03:40:14.786Z,1.03
2023-03-16T03:42:43.713Z,0.90
2023-03-16T03:45:14.701Z,1.20
2023-03-16T03:47:43.439Z,0.77
2023-03-16T03:50:12.660Z,0.80
2023-03-16T03:52:41.058Z,0.90
2023-03-16T03:55:10.401Z,0.80
2023-03-16T03:57:38.882Z,0.77
2023-03-16T04:00:11.729Z,0.87
2023-03-16T04:02:40.319Z,0.60
2023-03-16T04:05:09.288Z,0.67
2023-03-16T04:07:37.901Z,0.80
2023-03-16T04:10:06.936Z,1.00
2023-03-16T04:12:35.318Z,0.67
2023-03-16T04:15:04.318Z,1.00
2023-03-16T04:17:34.297Z,0.90
2023-03-16T04:20:02.968Z,1.10
2023-03-16T04:22:31.346Z,0.90
2023-03-16T04:24:59.205Z,1.07
2023-03-16T04:27:27.081Z,1.10
2023-03-16T04:29:56.604Z,1.10
2023-03-16T04:32:26.842Z,1.00
2023-03-16T04:34:56.660Z,1.10
2023-03-16T04:37:25.147Z,1.23
2023-03-16T04:39:53.585Z,1.20
2023-03-16T04:42:22.515Z,0.83
2023-03-16T04:44:50.548Z,1.43
2023-03-16T04:47:18.731Z,0.90
2023-03-16T04:49:47.269Z,0.93
2023-03-16T04:52:15.688Z,0.97
2023-03-16T04:54:44.352Z,1.20
2023-03-16T04:57:12.690Z,0.77
2023-03-16T04:59:41.697Z,1.20
2023-03-16T05:02:10.126Z,1.10
2023-03-16T05:04:38.354Z,0.80
2023-03-16T05:07:06.711Z,0.93
2023-03-16T05:09:35.104Z,1.60
2023-03-16T05:12:03.131Z,1.33
2023-03-16T05:14:31.106Z,1.13
2023-03-16T05:16:59.429Z,1.20
2023-03-16T05:19:27.743Z,1.10
2023-03-16T05:21:56.892Z,1.17
2023-03-16T05:24:24.820Z,1.13
2023-03-16T05:26:53.396Z,1.00
2023-03-16T05:29:21.898Z,1.40
2023-03-16T05:31:49.978Z,1.00
2023-03-16T05:34:17.914Z,0.97
2023-03-16T05:36:46.195Z,0.80
2023-03-16T05:39:14.007Z,1.23
2023-03-16T05:41:42.546Z,1.20
2023-03-16T05:44:11.136Z,1.00
2023-03-16T05:46:39.491Z,1.17
2023-03-16T05:49:08.195Z,1.10
2023-03-16T05:51:35.915Z,1.30
2023-03-16T05:54:05.468Z,1.30
2023-03-16T05:56:33.845Z,1.67
2023-03-16T05:59:03.448Z,1.27
2023-03-16T06:01:31.833Z,1.60
2023-03-16T06:04:00.522Z,1.60
2023-03-16T06:06:28.652Z,1.10
2023-03-16T06:08:56.966Z,1.43
2023-03-16T06:11:24.882Z,1.53
2023-03-16T06:13:52.707Z,1.20
2023-03-16T06:16:21.434Z,1.50
2023-03-16T06:18:49.621Z,1.43
2023-03-16T06:21:18.063Z,1.27
2023-03-16T06:23:46.728Z,1.53
2023-03-16T06:26:15.724Z,1.87
2023-03-16T06:28:44.106Z,1.60
2023-03-16T06:31:12.248Z,1.83
2023-03-16T06:33:41.165Z,2.57
2023-03-16T06:36:09.224Z,2.33
2023-03-16T06:38:37.248Z,2.30
2023-03-16T06:41:06.145Z,2.63
2023-03-16T06:43:34.691Z,2.50
2023-03-16T06:46:03.908Z,2.07
2023-03-16T06:48:32.594Z,1.90
2023-03-16T06:51:01.271Z,1.87
2023-03-16T06:53:30.197Z,1.70
2023-03-16T06:55:58.122Z,1.80
2023-03-16T06:58:26.340Z,1.47
2023-03-16T07:00:54.760Z,2.27
2023-03-16T07:03:23.608Z,2.13
2023-03-16T07:05:52.149Z,1.90
2023-03-16T07:08:20.531Z,2.87
2023-03-16T07:10:49.215Z,2.40
2023-03-16T07:13:17.353Z,2.03
2023-03-16T07:15:45.930Z,2.20
2023-03-16T07:18:14.554Z,2.17
2023-03-16T07:20:43.043Z,2.20
2023-03-16T07:23:11.680Z,2.60
2023-03-16T07:25:40.859Z,2.23
2023-03-16T07:28:08.815Z,2.20
2023-03-16T07:30:37.226Z,1.60
2023-03-16T07:33:06.048Z,2.00
2023-03-16T07:35:34.546Z,2.40
2023-03-16T07:38:02.805Z,3.33
2023-03-16T07:40:31.721Z,3.23
2023-03-16T07:43:00.291Z,2.33
2023-03-16T07:45:29.986Z,2.43
2023-03-16T07:50:25.592Z,2.58
2023-03-16T07:52:54.500Z,2.60
2023-03-16T07:55:22.829Z,2.40
2023-03-16T07:57:51.299Z,4.63
2023-03-16T08:00:21.918Z,2.77
2023-03-16T08:02:50.606Z,3.50
2023-03-16T08:05:19.332Z,3.07
2023-03-16T08:07:48.181Z,2.40
2023-03-16T08:10:16.508Z,3.10
2023-03-16T08:12:45.006Z,2.60
2023-03-16T08:15:13.523Z,1.80
2023-03-16T08:17:45.263Z,2.27
2023-03-16T08:20:15.294Z,2.03
2023-03-16T08:22:46.264Z,2.20
2023-03-16T08:25:15.656Z,1.70
2023-03-16T08:27:44.470Z,1.87
2023-03-16T08:30:13.436Z,1.80
2023-03-16T08:32:42.473Z,1.90
2023-03-16T08:35:13.676Z,1.93
2023-03-16T08:37:42.858Z,1.37
2023-03-16T08:40:13.352Z,1.67
2023-03-16T08:42:42.234Z,1.63
2023-03-16T08:45:13.794Z,1.50
2023-03-16T08:47:41.639Z,1.43
2023-03-16T08:50:10.993Z,1.07
2023-03-16T08:52:39.068Z,1.63
2023-03-16T08:55:07.849Z,1.63
2023-03-16T08:57:36.534Z,1.30
2023-03-16T09:00:07.229Z,1.43
2023-03-16T09:02:37.395Z,1.73
2023-03-16T09:05:06.298Z,1.27
2023-03-16T09:07:36.357Z,1.93
2023-03-16T09:10:05.644Z,1.73
2023-03-16T09:12:35.456Z,1.40
2023-03-16T09:15:04.318Z,1.73
2023-03-16T09:17:32.555Z,1.50
2023-03-16T09:20:08.271Z,1.03
2023-03-16T09:22:31.286Z,1.33
2023-03-16T09:25:00.214Z,1.60
2023-03-16T09:27:30.914Z,1.60
2023-03-16T09:30:01.335Z,1.60
2023-03-16T09:32:30.827Z,2.03
2023-03-16T09:34:59.478Z,1.67
2023-03-16T09:37:35.341Z,2.17
2023-03-16T09:40:06.571Z,2.27
2023-03-16T09:42:30.298Z,1.47
2023-03-16T09:44:59.839Z,2.00
2023-03-16T09:47:30.289Z,1.63
2023-03-16T09:50:00.773Z,1.80
2023-03-16T09:52:46.139Z,1.60
2023-03-16T09:55:34.302Z,1.93
2023-03-16T09:58:03.382Z,2.00
2023-03-16T10:00:39.811Z,2.20
2023-03-16T10:03:12.546Z,2.50
2023-03-16T10:05:41.300Z,1.93
2023-03-16T10:08:22.968Z,2.43
2023-03-16T10:10:58.281Z,2.47
2023-03-16T10:13:31.342Z,1.63
2023-03-16T10:16:01.534Z,2.13
2023-03-16T10:18:33.133Z,2.97
2023-03-16T10:21:01.919Z,3.40
2023-03-16T10:23:31.921Z,3.17
2023-03-16T10:26:00.401Z,2.60
2023-03-16T10:28:29.464Z,2.20
2023-03-16T10:30:59.866Z,2.10
2023-03-16T10:33:29.346Z,2.40
2023-03-16T10:35:59.199Z,2.03
2023-03-16T10:38:28.671Z,2.70
2023-03-16T10:40:58.293Z,2.57
2023-03-16T10:43:26.331Z,2.70
2023-03-16T10:45:56.865Z,2.13
2023-03-16T10:48:26.049Z,2.57
2023-03-16T10:50:57.868Z,2.70
2023-03-16T10:53:36.258Z,2.80
2023-03-16T10:56:06.250Z,2.50
2023-03-16T10:58:36.450Z,2.20
2023-03-16T11:01:06.347Z,2.60
2023-03-16T11:03:37.194Z,2.30
2023-03-16T11:06:08.144Z,2.67
2023-03-16T11:08:38.177Z,2.47
2023-03-16T11:11:17.011Z,2.60
2023-03-16T11:13:47.489Z,2.37
2023-03-16T11:16:19.988Z,2.60
2023-03-16T11:18:49.929Z,2.37
2023-03-16T11:21:19.373Z,2.67
2023-03-16T11:23:50.252Z,2.77
2023-03-16T11:26:20.041Z,2.40
2023-03-16T11:28:50.154Z,2.67
2023-03-16T11:31:20.874Z,2.40
2023-03-16T11:33:49.524Z,2.60
2023-03-16T11:36:28.563Z,2.50
2023-03-16T11:38:59.204Z,2.87
2023-03-16T11:41:29.479Z,2.97
2023-03-16T11:43:58.263Z,3.00
2023-03-16T11:46:34.489Z,3.80
2023-03-16T11:49:10.350Z,2.80
2023-03-16T11:51:41.823Z,2.87
2023-03-16T11:54:20.128Z,3.10
2023-03-16T11:56:55.900Z,3.13
2023-03-16T11:59:28.546Z,3.30
2023-03-16T12:02:01.666Z,5.37
2023-03-16T12:04:34.100Z,2.80
2023-03-16T12:07:04.285Z,2.87
2023-03-16T12:09:38.400Z,3.77
2023-03-16T12:12:20.696Z,3.63
2023-03-16T12:14:53.589Z,3.87
2023-03-16T12:17:22.933Z,3.67
2023-03-16T12:20:11.199Z,4.00
2023-03-16T12:25:10.722Z,4.12
2023-03-16T12:27:40.326Z,3.83
2023-03-16T12:30:22.370Z,3.60
2023-03-16T12:32:53.789Z,3.47
2023-03-16T12:35:26.879Z,3.60
2023-03-16T12:38:13.104Z,3.20
2023-03-16T12:40:47.016Z,3.83
2023-03-16T12:43:16.985Z,3.40
2023-03-16T12:45:56.006Z,3.80
2023-03-16T12:48:27.700Z,3.80
2023-03-16T12:50:58.040Z,3.60
2023-03-16T12:53:38.090Z,4.00
2023-03-16T12:56:09.360Z,4.20
2023-03-16T12:58:39.242Z,4.63
2023-03-16T13:01:09.314Z,4.63
2023-03-16T13:03:38.229Z,4.50
2023-03-16T13:06:06.846Z,4.57
2023-03-16T13:08:46.604Z,4.33
2023-03-16T13:11:18.121Z,3.77
2023-03-16T13:14:03.424Z,3.90
2023-03-16T13:16:37.417Z,4.33
2023-03-16T13:19:22.528Z,3.50
2023-03-16T13:21:52.542Z,3.83
2023-03-16T13:24:29.647Z,5.17
2023-03-16T13:27:02.499Z,4.50
2023-03-16T13:29:31.099Z,5.07
2023-03-16T13:32:12.015Z,4.53
2023-03-16T13:34:42.414Z,4.50
2023-03-16T13:37:17.932Z,4.67
2023-03-16T13:39:47.846Z,5.30
2023-03-16T13:42:17.697Z,5.83
2023-03-16T13:44:46.333Z,5.07
2023-03-16T13:47:19.895Z,5.77
2023-03-16T13:49:49.384Z,6.17
2023-03-16T13:52:23.671Z,5.10
2023-03-16T13:54:54.072Z,6.27
2023-03-16T13:57:24.774Z,5.87
2023-03-16T13:59:56.534Z,5.87
2023-03-16T14:02:25.283Z,5.43
2023-03-16T14:04:53.947Z,5.90
2023-03-16T14:07:24.332Z,6.03
2023-03-16T14:09:56.140Z,4.83
2023-03-16T14:12:27.285Z,5.77
2023-03-16T14:14:59.393Z,7.07
2023-03-16T14:17:30.445Z,8.23
2023-03-16T14:20:02.647Z,7.13
2023-03-16T14:22:32.672Z,7.23
2023-03-16T14:25:01.877Z,6.27
2023-03-16T14:27:32.662Z,6.70
2023-03-16T14:30:02.652Z,6.40
2023-03-16T14:32:32.885Z,6.50
2023-03-16T14:35:07.197Z,7.77
2023-03-16T14:37:38.935Z,6.80
2023-03-16T14:40:09.832Z,6.00
2023-03-16T14:42:40.194Z,6.37
2023-03-16T14:45:13.388Z,8.87
2023-03-16T14:47:48.180Z,8.33
2023-03-16T14:50:21.044Z,7.70
2023-03-16T14:52:50.704Z,7.03
2023-03-16T14:55:20.622Z,7.30
2023-03-16T14:57:50.145Z,7.00
2023-03-16T15:00:19.505Z,8.10
2023-03-16T15:02:49.817Z,8.00
2023-03-16T15:05:23.358Z,7.80
2023-03-16T15:07:53.689Z,7.90
2023-03-16T15:10:27.342Z,7.03
2023-03-16T15:12:57.454Z,8.57
2023-03-16T15:15:27.644Z,8.50
2023-03-16T15:17:55.717Z,9.07
2023-03-16T15:20:26.144Z,8.50
2023-03-16T15:22:54.885Z,8.07
2023-03-16T15:25:25.262Z,8.13
2023-03-16T15:27:54.543Z,7.60
2023-03-16T15:30:27.094Z,6.57
2023-03-16T15:32:55.386Z,7.40
2023-03-16T15:35:23.939Z,7.40
2023-03-16T15:37:52.917Z,8.87
2023-03-16T15:40:26.002Z,7.93
2023-03-16T15:42:54.656Z,8.10
2023-03-16T15:45:24.100Z,9.63
2023-03-16T15:47:53.430Z,8.70
2023-03-16T15:50:22.627Z,7.93
2023-03-16T15:52:52.469Z,8.37
2023-03-16T15:57:49.811Z,7.58
2023-03-16T16:02:46.144Z,6.90
2023-03-16T16:05:14.659Z,7.73
2023-03-16T16:07:43.048Z,7.43
2023-03-16T16:10:12.958Z,8.33
2023-03-16T16:12:40.835Z,7.50
2023-03-16T16:15:13.338Z,8.67
2023-03-16T16:17:54.045Z,8.43
2023-03-16T16:20:23.103Z,8.30
2023-03-16T16:22:52.487Z,8.10
2023-03-16T16:25:23.810Z,8.83
2023-03-16T16:27:52.992Z,9.10
2023-03-16T16:30:26.450Z,8.87
2023-03-16T16:32:57.593Z,9.53
2023-03-16T16:35:27.486Z,9.43
2023-03-16T16:37:55.859Z,10.60
2023-03-16T16:40:26.524Z,11.33
2023-03-16T16:42:54.993Z,11.07
2023-03-16T16:45:25.174Z,10.73
2023-03-16T16:47:55.759Z,8.37
2023-03-16T16:50:25.961Z,9.07
2023-03-16T16:52:55.303Z,9.97
2023-03-16T16:55:24.554Z,10.50
2023-03-16T16:57:54.555Z,9.90
2023-03-16T17:00:24.035Z,9.40
2023-03-16T17:02:54.402Z,10.20
2023-03-16T17:05:24.057Z,9.83
2023-03-16T17:07:53.656Z,10.67
2023-03-16T17:10:24.704Z,9.63
2023-03-16T17:12:54.054Z,12.00
2023-03-16T17:15:24.158Z,9.40
2023-03-16T17:17:53.950Z,9.03
2023-03-16T17:20:25.477Z,9.27
2023-03-16T17:22:55.761Z,10.07
2023-03-16T17:25:25.596Z,9.80
2023-03-16T17:30:23.146Z,9.35
2023-03-16T17:32:52.568Z,9.93
2023-03-16T17:35:21.154Z,10.63
2023-03-16T17:37:49.931Z,10.40
2023-03-16T17:40:20.655Z,10.73
2023-03-16T17:42:50.579Z,10.10
2023-03-16T17:45:20.581Z,10.63
2023-03-16T17:47:52.103Z,10.57
2023-03-16T17:50:22.928Z,9.80
2023-03-16T17:52:52.074Z,12.10
2023-03-16T17:55:25.265Z,11.20
2023-03-16T17:57:54.790Z,10.37
2023-03-16T18:00:24.730Z,11.17
2023-03-16T18:02:56.974Z,10.63
2023-03-16T18:05:29.936Z,11.57
2023-03-16T18:08:15.740Z,9.37
2023-03-16T18:10:46.263Z,9.97
2023-03-16T18:13:19.654Z,9.77
2023-03-16T18:15:49.221Z,10.17
2023-03-16T18:18:21.573Z,10.70
2023-03-16T18:20:51.444Z,9.80
2023-03-16T18:23:20.994Z,10.97
2023-03-16T18:25:51.579Z,10.37
2023-03-16T18:28:21.237Z,10.13
2023-03-16T18:30:52.927Z,9.77
2023-03-16T18:33:25.696Z,9.57
2023-03-16T18:35:55.453Z,10.80
2023-03-16T18:40:51.281Z,9.70
2023-03-16T18:43:19.674Z,9.63
2023-03-16T18:45:48.802Z,11.43
2023-03-16T18:48:22.560Z,10.50
2023-03-16T18:50:51.741Z,11.20
2023-03-16T18:53:22.054Z,13.07
2023-03-16T18:55:52.521Z,11.43
2023-03-16T18:58:22.854Z,10.63
2023-03-16T19:00:58.713Z,12.17
2023-03-16T19:03:28.233Z,12.47
2023-03-16T19:05:58.165Z,11.90
2023-03-16T19:10:56.819Z,10.68
2023-03-16T19:13:27.026Z,10.80
2023-03-16T19:15:56.228Z,11.07
2023-03-16T19:18:26.524Z,11.17
2023-03-16T19:20:55.659Z,10.40
2023-03-16T19:23:32.646Z,9.87
2023-03-16T19:26:01.634Z,10.87
2023-03-16T19:28:34.764Z,11.57
2023-03-16T19:31:04.959Z,10.80
2023-03-16T19:33:33.558Z,10.13
2023-03-16T19:36:02.203Z,10.30
2023-03-16T19:38:31.412Z,9.03
2023-03-16T19:41:01.057Z,10.57
2023-03-16T19:43:29.807Z,10.23
2023-03-16T19:46:00.264Z,8.83
2023-03-16T19:48:35.504Z,9.90
2023-03-16T19:51:04.357Z,9.73
2023-03-16T19:53:33.872Z,9.07
2023-03-16T19:56:01.900Z,10.03
2023-03-16T19:58:35.552Z,9.70
2023-03-16T20:01:04.352Z,10.13
2023-03-16T20:03:34.845Z,9.93
2023-03-16T20:06:03.097Z,9.63
2023-03-16T20:08:32.853Z,11.03
2023-03-16T20:11:02.758Z,9.33
2023-03-16T20:15:59.789Z,10.20
2023-03-16T20:18:29.825Z,9.07
2023-03-16T20:20:57.950Z,11.50
2023-03-16T20:23:27.841Z,10.07
2023-03-16T20:25:57.341Z,10.00
2023-03-16T20:28:27.280Z,10.57
2023-03-16T20:30:56.054Z,10.13
2023-03-16T20:33:26.911Z,9.23
2023-03-16T20:35:56.288Z,9.87
2023-03-16T20:38:25.074Z,10.27
2023-03-16T20:40:54.179Z,10.40
2023-03-16T20:43:24.792Z,10.60
2023-03-16T20:45:55.228Z,10.73
2023-03-16T20:48:26.070Z,9.53
2023-03-16T20:50:55.521Z,10.53
2023-03-16T20:53:24.559Z,8.73
2023-03-16T20:55:53.091Z,11.20
2023-03-16T20:58:23.369Z,10.33
2023-03-16T21:00:52.150Z,10.23
2023-03-16T21:03:23.567Z,10.00
2023-03-16T21:05:53.018Z,10.07
2023-03-16T21:08:21.165Z,9.40
2023-03-16T21:10:50.660Z,9.37
2023-03-16T21:13:29.124Z,9.17
2023-03-16T21:15:59.044Z,8.40
2023-03-16T21:18:27.638Z,9.13
2023-03-16T21:20:56.323Z,8.47
2023-03-16T21:23:25.057Z,8.80
2023-03-16T21:26:04.184Z,8.53
2023-03-16T21:28:34.426Z,8.60
2023-03-16T21:31:03.082Z,8.83
2023-03-16T21:33:43.099Z,8.97
2023-03-16T21:36:12.544Z,9.10
2023-03-16T21:38:41.081Z,11.30
2023-03-16T21:41:09.639Z,10.17
2023-03-16T21:43:38.413Z,9.73
2023-03-16T21:46:07.515Z,9.70
2023-03-16T21:48:40.408Z,10.30
2023-03-16T21:51:13.441Z,10.17
2023-03-16T21:53:41.931Z,8.27
2023-03-16T21:56:11.227Z,9.07
2023-03-16T21:58:39.862Z,7.93
2023-03-16T22:01:08.849Z,8.13
2023-03-16T22:03:50.518Z,7.87
2023-03-16T22:06:11.881Z,7.53
2023-03-16T22:08:40.859Z,7.20
2023-03-16T22:11:10.151Z,7.93
2023-03-16T22:13:39.044Z,8.33
2023-03-16T22:16:09.061Z,7.67
2023-03-16T22:18:38.130Z,7.80
2023-03-16T22:21:15.752Z,6.90
2023-03-16T22:23:45.411Z,8.53
2023-03-16T22:26:15.206Z,7.53
2023-03-16T22:28:43.830Z,8.33
2023-03-16T22:31:13.663Z,8.13
2023-03-16T22:36:12.411Z,8.80
2023-03-16T22:38:42.063Z,8.37
2023-03-16T22:41:12.613Z,9.30
2023-03-16T22:43:42.529Z,9.30
2023-03-16T22:46:22.102Z,8.37
2023-03-16T22:48:51.635Z,7.97
2023-03-16T22:51:22.008Z,7.00
2023-03-16T22:53:51.923Z,7.70
2023-03-16T22:56:21.037Z,7.07
2023-03-16T22:58:51.140Z,7.43
2023-03-16T23:01:20.534Z,7.37
2023-03-16T23:03:49.712Z,7.37
2023-03-16T23:06:19.182Z,8.33
2023-03-16T23:08:48.113Z,7.87
2023-03-16T23:11:24.473Z,7.87
2023-03-16T23:13:55.865Z,7.60
2023-03-16T23:16:26.203Z,7.13
2023-03-16T23:18:54.909Z,7.17
2023-03-16T23:21:24.833Z,7.23
2023-03-16T23:24:03.548Z,7.90
2023-03-16T23:26:24.611Z,7.47
2023-03-16T23:28:54.117Z,7.73
2023-03-16T23:31:22.538Z,8.70
2023-03-16T23:33:50.575Z,8.00
2023-03-16T23:36:20.026Z,8.27
2023-03-16T23:38:49.443Z,8.27
2023-03-16T23:41:19.663Z,7.30
2023-03-16T23:43:48.687Z,7.90
2023-03-16T23:46:18.316Z,7.03
2023-03-16T23:51:20.399Z,7.05
2023-03-16T23:53:49.574Z,6.37
2023-03-16T23:56:18.509Z,6.33
2023-03-16T23:58:46.655Z,6.67
